Emerald Coast — WDC9127 — position and weather

sailwx.info

Track history (hours):
 
Tides and Currents Weather Stations Pressure Air Temp Water Temp Dewpoint Dewpoint Depression Visibility Wind Speed Wind Dir Waves Ship Positions

Emerald Coast

Owner: Dann Marine Towing, LC, Chesapeake City, MD. More information available from US FCC via Universal Licensing System and Coast Guard Vessel Documentation Center.

Last reported at 2015-May-22 23:31 UTC. Time now 2015-May-22 23:45 UTC.
Position N 40°39' W 074°07'.

; draft 3 m.

Type: Towing. MMSI: 367097920.

Date/timePositionNaut miles runAvg speedWind from/ knotsBaromVisibWave heightAir tempDewpointWater temp
2015-May-22 23:31N 40°39' W 074°07'4 3.8
2015-May-22 22:33N 40°40' W 074°03'1 1.4
2015-May-22 21:34N 40°39' W 074°03'0 0.0
2015-May-22 20:33N 40°39' W 074°03'0 0.0
2015-May-22 19:33N 40°39' W 074°03'1 1.0
2015-May-22 18:33N 40°39' W 074°04'2 2.4
2015-May-22 17:34N 40°39' W 074°07'2 2.1
2015-May-22 16:33N 40°39' W 074°05'2 1.6
2015-May-22 15:33N 40°39' W 074°02'1 0.9
2015-May-22 14:33N 40°39' W 074°01'1 1.0
2015-May-22 13:34N 40°40' W 074°00'0 0.0
2015-May-22 12:33N 40°40' W 074°00'0 0.3
2015-May-22 11:33N 40°40' W 074°00'0 0.0
2015-May-22 10:33N 40°40' W 074°00'0 0.0
2015-May-22 09:34N 40°40' W 074°00'0 0.0
2015-May-22 08:33N 40°40' W 074°00'0 0.0
2015-May-22 07:34N 40°40' W 074°00'0 0.0
2015-May-22 06:34N 40°40' W 074°00'0 0.0
2015-May-22 05:34N 40°40' W 074°00'0 0.0
2015-May-22 04:33N 40°40' W 074°00'0 0.0
2015-May-22 03:33N 40°40' W 074°00'0 0.0
2015-May-22 02:33N 40°40' W 074°00'0 0.0
2015-May-22 01:33N 40°40' W 074°00'2 2.5
2015-May-22 00:33N 40°40' W 074°03'1 1.1
2015-May-21 23:33N 40°41' W 074°04'0 0.0
2015-May-21 22:33N 40°41' W 074°04'0 0.0
2015-May-21 21:33N 40°41' W 074°04'0 0.0
2015-May-21 20:33N 40°41' W 074°04'1 1.1
2015-May-21 19:33N 40°40' W 074°04'0 0.0
2015-May-21 18:33N 40°40' W 074°04'0 0.0
2015-May-21 17:33N 40°40' W 074°04'1 0.7
2015-May-21 16:33N 40°40' W 074°03'3 2.9
2015-May-21 15:33N 40°39' W 074°07'2 2.0
2015-May-21 14:34N 40°40' W 074°08'1 0.8
2015-May-21 13:33N 40°41' W 074°09'0 0.0
2015-May-21 12:33N 40°41' W 074°09'0 0.0
2015-May-21 11:33N 40°41' W 074°09'0 0.0
2015-May-21 10:32N 40°41' W 074°09'1 0.8
2015-May-21 09:34N 40°40' W 074°08'2 2.0
2015-May-21 08:34N 40°39' W 074°07'0 0.1
2015-May-21 07:33N 40°39' W 074°06'0 0.3
2015-May-21 06:33N 40°39' W 074°07'1 1.5
2015-May-21 05:33N 40°39' W 074°05'4 3.6
2015-May-21 04:33N 40°41' W 074°09'2 2.2
2015-May-21 03:33N 40°39' W 074°09'4 3.9
2015-May-21 02:34N 40°39' W 074°04'1 0.8
2015-May-21 01:34N 40°39' W 074°03'3 1.4
2015-May-20 23:07N 40°38' W 074°07'0 0.0
2015-May-20 21:32N 40°38' W 074°07'0 0.0
2015-May-20 20:32N 40°38' W 074°07'0 0.0
2015-May-20 19:12N 40°38' W 074°07'0 0.0
2015-May-20 18:31N 40°38' W 074°07'0 0.0
2015-May-20 16:31N 40°38' W 074°07'0 0.0
2015-May-20 14:09N 40°38' W 074°07'0 0.0
2015-May-20 13:26N 40°38' W 074°07'0 0.0
2015-May-20 12:30N 40°38' W 074°07'0 0.0
2015-May-20 11:32N 40°38' W 074°07'0 0.0
2015-May-20 10:30N 40°38' W 074°07'0 0.0
2015-May-20 09:25N 40°38' W 074°07'0 0.0
2015-May-20 08:33N 40°38' W 074°07'0 0.0
2015-May-20 07:17N 40°38' W 074°07'0 0.0
2015-May-20 06:16N 40°38' W 074°07'0 0.0
2015-May-19 21:16N 40°38' W 074°07'0 0.0
2015-May-19 19:11N 40°38' W 074°07'2 3.8
2015-May-19 18:33N 40°39' W 074°04'3 2.9
2015-May-19 17:33N 40°39' W 074°08'2 2.3
2015-May-19 16:33N 40°41' W 074°09'3 2.7
2015-May-19 15:33N 40°39' W 074°06'3 3.1
2015-May-19 14:34N 40°40' W 074°03'5 4.8
2015-May-19 13:33N 40°39' W 074°09'2 1.8
2015-May-19 12:34N 40°41' W 074°09'0 0.0
2015-May-19 11:33N 40°41' W 074°09'0 0.0
2015-May-19 10:33N 40°41' W 074°09'0 0.0
2015-May-19 09:33N 40°41' W 074°09'0 0.2
2015-May-19 08:34N 40°41' W 074°09'1 0.9
2015-May-19 07:34N 40°41' W 074°10'0 0.0
2015-May-19 06:34N 40°41' W 074°10'1 0.6
2015-May-19 05:33N 40°41' W 074°09'0 0.4
2015-May-19 04:33N 40°41' W 074°09'0 0.0
2015-May-19 03:33N 40°41' W 074°09'0 0.0
2015-May-19 02:33N 40°41' W 074°09'0 0.0
2015-May-19 01:33N 40°41' W 074°09'0 0.0
2015-May-19 00:33N 40°41' W 074°09'0 0.0
2015-May-18 23:33N 40°41' W 074°09'0 0.0
2015-May-18 22:33N 40°41' W 074°09'1 1.4
2015-May-18 21:33N 40°40' W 074°09'0 0.1
2015-May-18 20:33N 40°40' W 074°09'0 0.0
2015-May-18 19:33N 40°40' W 074°09'0 0.0
2015-May-18 18:34N 40°40' W 074°09'0 0.0
2015-May-18 17:33N 40°40' W 074°09'0 0.0
2015-May-18 16:33N 40°40' W 074°09'2 1.7
2015-May-18 15:33N 40°39' W 074°07'0 0.0
2015-May-18 14:31N 40°39' W 074°07'0 0.0
2015-May-18 13:32N 40°39' W 074°07'0 0.0
2015-May-18 12:30N 40°39' W 074°07'2 1.8
2015-May-18 11:34N 40°40' W 074°09'0 0.2
2015-May-18 10:33N 40°40' W 074°09'2 1.7
2015-May-18 09:33N 40°39' W 074°07'1 0.5
2015-May-18 08:33N 40°39' W 074°07'0 0.0
2015-May-18 07:33N 40°39' W 074°07'0 0.0
2015-May-18 06:33N 40°39' W 074°07'0 0.0
2015-May-18 05:31N 40°39' W 074°07'0 0.0
2015-May-18 04:33N 40°39' W 074°07'0 0.0
2015-May-18 03:32N 40°39' W 074°07'0 0.0
2015-May-18 02:33N 40°39' W 074°07'1 1.0
2015-May-18 01:33N 40°39' W 074°06'2 1.8
2015-May-18 00:33N 40°38' W 074°04'0 0.0
2015-May-17 23:33N 40°38' W 074°04'0 0.0
2015-May-17 22:33N 40°38' W 074°04'0 0.0
2015-May-17 21:33N 40°38' W 074°04'0 0.2
2015-May-17 20:33N 40°38' W 074°04'0 0.0
2015-May-17 19:33N 40°38' W 074°04'0 0.3
2015-May-17 18:33N 40°38' W 074°04'0 0.2
2015-May-17 17:33N 40°37' W 074°04'1 0.6
2015-May-17 16:34N 40°38' W 074°04'1 1.5
2015-May-17 15:33N 40°40' W 074°04'1 0.5
2015-May-17 14:34N 40°39' W 074°05'2 1.9
2015-May-17 13:34N 40°41' W 074°03'2 2.2
2015-May-17 12:33N 40°39' W 074°05'3 2.7
2015-May-17 11:34N 40°40' W 074°08'1 1.3
2015-May-17 10:33N 40°41' W 074°10'0 0.2
2015-May-17 09:33N 40°41' W 074°09'1 0.6
2015-May-17 08:33N 40°41' W 074°09'0 0.0
2015-May-17 07:34N 40°41' W 074°09'0 0.0
2015-May-17 06:33N 40°41' W 074°09'0 0.0
2015-May-17 05:34N 40°41' W 074°09'0 0.0
2015-May-17 04:33N 40°41' W 074°09'0 0.0
2015-May-17 03:33N 40°41' W 074°09'0 0.0
2015-May-17 02:33N 40°41' W 074°09'0 0.0
2015-May-17 01:34N 40°41' W 074°09'0 0.0
2015-May-17 00:34N 40°41' W 074°09'0 0.3
2015-May-16 23:33N 40°41' W 074°08'3 2.9
2015-May-16 22:33N 40°39' W 074°11'0 0.0
2015-May-16 21:31N 40°39' W 074°11'0 0.0
2015-May-16 20:33N 40°39' W 074°11'4 4.4
2015-May-16 19:33N 40°39' W 074°05'0 0.4
2015-May-16 18:33N 40°39' W 074°06'1 0.8
2015-May-16 17:08N 40°38' W 074°07'0 0.0
2015-May-16 16:32N 40°38' W 074°07'0 0.0
2015-May-16 15:33N 40°38' W 074°07'0 0.0
2015-May-16 14:22N 40°38' W 074°07'4 4.8
2015-May-16 13:33N 40°38' W 074°12'0 0.3
2015-May-16 12:33N 40°38' W 074°12'0 0.4
2015-May-16 11:33N 40°38' W 074°12'0 0.4
2015-May-16 10:33N 40°38' W 074°12'0 0.0
2015-May-16 07:33N 40°38' W 074°12'4 3.6
2015-May-16 06:34N 40°39' W 074°07'1 0.3
2015-May-16 03:32N 40°39' W 074°07'0 0.3
2015-May-16 02:33N 40°39' W 074°07'0 0.0
2015-May-16 01:34N 40°39' W 074°07'0 0.0
2015-May-16 00:33N 40°39' W 074°07'0 0.0
2015-May-15 23:33N 40°39' W 074°07'0 0.3
2015-May-15 22:33N 40°39' W 074°06'4 4.4
2015-May-15 21:34N 40°40' W 074°01'4 3.7
2015-May-15 20:33N 40°39' W 074°05'3 3.3
2015-May-15 19:33N 40°40' W 074°01'3 2.7
2015-May-15 18:33N 40°39' W 074°05'2 2.1
2015-May-15 17:33N 40°38' W 074°07'0 0.1
2015-May-15 16:34N 40°39' W 074°07'3 3.4
2015-May-15 15:33N 40°37' W 074°03'3 2.9
2015-May-15 14:33N 40°39' W 074°06'0 0.0
2015-May-15 13:33N 40°39' W 074°06'0 0.0
2015-May-15 12:33N 40°39' W 074°06'0 0.0
2015-May-15 11:33N 40°39' W 074°06'1 0.6
2015-May-15 10:33N 40°39' W 074°05'4 3.9
2015-May-15 09:34N 40°40' W 074°00'4 4.1
2015-May-15 08:33N 40°39' W 074°06'3 2.9
2015-May-15 07:33N 40°41' W 074°09'3 3.0
2015-May-15 06:34N 40°39' W 074°05'4 4.0
2015-May-15 05:33N 40°41' W 074°01'3 3.4
2015-May-15 04:33N 40°40' W 074°05'0 0.2
2015-May-15 03:33N 40°40' W 074°05'1 1.1
2015-May-15 02:34N 40°39' W 074°04'2 2.2
2015-May-15 01:33N 40°38' W 074°07'0 0.0
2015-May-15 00:33N 40°38' W 074°07'0 0.1
2015-May-14 23:33N 40°39' W 074°07'2 2.3
2015-May-14 22:34N 40°40' W 074°05'2 1.6
2015-May-14 21:33N 40°39' W 074°06'1 1.0
2015-May-14 20:24N 40°39' W 074°07'4 5.2
2015-May-14 19:33N 40°36' W 074°12'3 2.9
2015-May-14 18:33N 40°39' W 074°10'7 7.1
2015-May-14 17:33N 40°41' W 074°01'7 7.0
2015-May-14 16:33N 40°47' W 073°56'4 4.4
2015-May-14 15:33N 40°48' W 073°50'1 0.1
2015-May-13 17:32N 40°48' W 073°49'6 5.8
2015-May-13 16:33N 40°47' W 073°56'2 2.2
2015-May-13 15:34N 40°45' W 073°58'2 1.9
2015-May-13 14:33N 40°43' W 073°58'2 1.8
2015-May-13 13:33N 40°42' W 074°00'2 2.2
2015-May-13 12:33N 40°40' W 074°02'3 3.4
2015-May-13 11:33N 40°39' W 074°06'5 4.8
2015-May-13 10:33N 40°38' W 074°12'0 0.2
2015-May-13 09:32N 40°38' W 074°12'0 0.0
2015-May-13 07:27N 40°38' W 074°12'0 0.0
2015-May-13 06:33N 40°38' W 074°12'6 6.2
2015-May-13 05:34N 40°40' W 074°05'1 1.1
2015-May-13 04:34N 40°39' W 074°04'2 1.6
2015-May-13 03:34N 40°39' W 074°06'1 0.8
2015-May-13 02:33N 40°38' W 074°07'0 0.0
2015-May-13 01:25N 40°38' W 074°07'0 0.0
2015-May-13 00:32N 40°38' W 074°07'0 0.0
2015-May-12 23:32N 40°38' W 074°07'  
Track history (hours):
 
Tides and Currents Weather Stations Pressure Air Temp Water Temp Dewpoint Dewpoint Depression Visibility Wind Speed Wind Dir Waves Ship Positions

Emerald Coast

Owner: Dann Marine Towing, LC, Chesapeake City, MD. More information available from US FCC via Universal Licensing System and Coast Guard Vessel Documentation Center.

Last reported at 2015-May-22 23:31 UTC. Time now 2015-May-22 23:45 UTC.
Position N 40°39' W 074°07'.

; draft 3 m.

Type: Towing. MMSI: 367097920.

Date/timePositionNaut miles runAvg speedWind from/ knotsBaromVisibWave heightAir tempDewpointWater temp
2015-May-22 23:31N 40°39' W 074°07'4 3.8
2015-May-22 22:33N 40°40' W 074°03'1 1.4
2015-May-22 21:34N 40°39' W 074°03'0 0.0
2015-May-22 20:33N 40°39' W 074°03'0 0.0
2015-May-22 19:33N 40°39' W 074°03'1 1.0
2015-May-22 18:33N 40°39' W 074°04'2 2.4
2015-May-22 17:34N 40°39' W 074°07'2 2.1
2015-May-22 16:33N 40°39' W 074°05'2 1.6
2015-May-22 15:33N 40°39' W 074°02'1 0.9
2015-May-22 14:33N 40°39' W 074°01'1 1.0
2015-May-22 13:34N 40°40' W 074°00'0 0.0
2015-May-22 12:33N 40°40' W 074°00'0 0.3
2015-May-22 11:33N 40°40' W 074°00'0 0.0
2015-May-22 10:33N 40°40' W 074°00'0 0.0
2015-May-22 09:34N 40°40' W 074°00'0 0.0
2015-May-22 08:33N 40°40' W 074°00'0 0.0
2015-May-22 07:34N 40°40' W 074°00'0 0.0
2015-May-22 06:34N 40°40' W 074°00'0 0.0
2015-May-22 05:34N 40°40' W 074°00'0 0.0
2015-May-22 04:33N 40°40' W 074°00'0 0.0
2015-May-22 03:33N 40°40' W 074°00'0 0.0
2015-May-22 02:33N 40°40' W 074°00'0 0.0
2015-May-22 01:33N 40°40' W 074°00'2 2.5
2015-May-22 00:33N 40°40' W 074°03'1 1.1
2015-May-21 23:33N 40°41' W 074°04'0 0.0
2015-May-21 22:33N 40°41' W 074°04'0 0.0
2015-May-21 21:33N 40°41' W 074°04'0 0.0
2015-May-21 20:33N 40°41' W 074°04'1 1.1
2015-May-21 19:33N 40°40' W 074°04'0 0.0
2015-May-21 18:33N 40°40' W 074°04'0 0.0
2015-May-21 17:33N 40°40' W 074°04'1 0.7
2015-May-21 16:33N 40°40' W 074°03'3 2.9
2015-May-21 15:33N 40°39' W 074°07'2 2.0
2015-May-21 14:34N 40°40' W 074°08'1 0.8
2015-May-21 13:33N 40°41' W 074°09'0 0.0
2015-May-21 12:33N 40°41' W 074°09'0 0.0
2015-May-21 11:33N 40°41' W 074°09'0 0.0
2015-May-21 10:32N 40°41' W 074°09'1 0.8
2015-May-21 09:34N 40°40' W 074°08'2 2.0
2015-May-21 08:34N 40°39' W 074°07'0 0.1
2015-May-21 07:33N 40°39' W 074°06'0 0.3
2015-May-21 06:33N 40°39' W 074°07'1 1.5
2015-May-21 05:33N 40°39' W 074°05'4 3.6
2015-May-21 04:33N 40°41' W 074°09'2 2.2
2015-May-21 03:33N 40°39' W 074°09'4 3.9
2015-May-21 02:34N 40°39' W 074°04'1 0.8
2015-May-21 01:34N 40°39' W 074°03'3 1.4
2015-May-20 23:07N 40°38' W 074°07'0 0.0
2015-May-20 21:32N 40°38' W 074°07'0 0.0
2015-May-20 20:32N 40°38' W 074°07'0 0.0
2015-May-20 19:12N 40°38' W 074°07'0 0.0
2015-May-20 18:31N 40°38' W 074°07'0 0.0
2015-May-20 16:31N 40°38' W 074°07'0 0.0
2015-May-20 14:09N 40°38' W 074°07'0 0.0
2015-May-20 13:26N 40°38' W 074°07'0 0.0
2015-May-20 12:30N 40°38' W 074°07'0 0.0
2015-May-20 11:32N 40°38' W 074°07'0 0.0
2015-May-20 10:30N 40°38' W 074°07'0 0.0
2015-May-20 09:25N 40°38' W 074°07'0 0.0
2015-May-20 08:33N 40°38' W 074°07'0 0.0
2015-May-20 07:17N 40°38' W 074°07'0 0.0
2015-May-20 06:16N 40°38' W 074°07'0 0.0
2015-May-19 21:16N 40°38' W 074°07'0 0.0
2015-May-19 19:11N 40°38' W 074°07'2 3.8
2015-May-19 18:33N 40°39' W 074°04'3 2.9
2015-May-19 17:33N 40°39' W 074°08'2 2.3
2015-May-19 16:33N 40°41' W 074°09'3 2.7
2015-May-19 15:33N 40°39' W 074°06'3 3.1
2015-May-19 14:34N 40°40' W 074°03'5 4.8
2015-May-19 13:33N 40°39' W 074°09'2 1.8
2015-May-19 12:34N 40°41' W 074°09'0 0.0
2015-May-19 11:33N 40°41' W 074°09'0 0.0
2015-May-19 10:33N 40°41' W 074°09'0 0.0
2015-May-19 09:33N 40°41' W 074°09'0 0.2
2015-May-19 08:34N 40°41' W 074°09'1 0.9
2015-May-19 07:34N 40°41' W 074°10'0 0.0
2015-May-19 06:34N 40°41' W 074°10'1 0.6
2015-May-19 05:33N 40°41' W 074°09'0 0.4
2015-May-19 04:33N 40°41' W 074°09'0 0.0
2015-May-19 03:33N 40°41' W 074°09'0 0.0
2015-May-19 02:33N 40°41' W 074°09'0 0.0
2015-May-19 01:33N 40°41' W 074°09'0 0.0
2015-May-19 00:33N 40°41' W 074°09'0 0.0
2015-May-18 23:33N 40°41' W 074°09'0 0.0
2015-May-18 22:33N 40°41' W 074°09'1 1.4
2015-May-18 21:33N 40°40' W 074°09'0 0.1
2015-May-18 20:33N 40°40' W 074°09'0 0.0
2015-May-18 19:33N 40°40' W 074°09'0 0.0
2015-May-18 18:34N 40°40' W 074°09'0 0.0
2015-May-18 17:33N 40°40' W 074°09'0 0.0
2015-May-18 16:33N 40°40' W 074°09'2 1.7
2015-May-18 15:33N 40°39' W 074°07'0 0.0
2015-May-18 14:31N 40°39' W 074°07'0 0.0
2015-May-18 13:32N 40°39' W 074°07'0 0.0
2015-May-18 12:30N 40°39' W 074°07'2 1.8
2015-May-18 11:34N 40°40' W 074°09'0 0.2
2015-May-18 10:33N 40°40' W 074°09'2 1.7
2015-May-18 09:33N 40°39' W 074°07'1 0.5
2015-May-18 08:33N 40°39' W 074°07'0 0.0
2015-May-18 07:33N 40°39' W 074°07'0 0.0
2015-May-18 06:33N 40°39' W 074°07'0 0.0
2015-May-18 05:31N 40°39' W 074°07'0 0.0
2015-May-18 04:33N 40°39' W 074°07'0 0.0
2015-May-18 03:32N 40°39' W 074°07'0 0.0
2015-May-18 02:33N 40°39' W 074°07'1 1.0
2015-May-18 01:33N 40°39' W 074°06'2 1.8
2015-May-18 00:33N 40°38' W 074°04'0 0.0
2015-May-17 23:33N 40°38' W 074°04'0 0.0
2015-May-17 22:33N 40°38' W 074°04'0 0.0
2015-May-17 21:33N 40°38' W 074°04'0 0.2
2015-May-17 20:33N 40°38' W 074°04'0 0.0
2015-May-17 19:33N 40°38' W 074°04'0 0.3
2015-May-17 18:33N 40°38' W 074°04'0 0.2
2015-May-17 17:33N 40°37' W 074°04'1 0.6
2015-May-17 16:34N 40°38' W 074°04'1 1.5
2015-May-17 15:33N 40°40' W 074°04'1 0.5
2015-May-17 14:34N 40°39' W 074°05'2 1.9
2015-May-17 13:34N 40°41' W 074°03'2 2.2
2015-May-17 12:33N 40°39' W 074°05'3 2.7
2015-May-17 11:34N 40°40' W 074°08'1 1.3
2015-May-17 10:33N 40°41' W 074°10'0 0.2
2015-May-17 09:33N 40°41' W 074°09'1 0.6
2015-May-17 08:33N 40°41' W 074°09'0 0.0
2015-May-17 07:34N 40°41' W 074°09'0 0.0
2015-May-17 06:33N 40°41' W 074°09'0 0.0
2015-May-17 05:34N 40°41' W 074°09'0 0.0
2015-May-17 04:33N 40°41' W 074°09'0 0.0
2015-May-17 03:33N 40°41' W 074°09'0 0.0
2015-May-17 02:33N 40°41' W 074°09'0 0.0
2015-May-17 01:34N 40°41' W 074°09'0 0.0
2015-May-17 00:34N 40°41' W 074°09'0 0.3
2015-May-16 23:33N 40°41' W 074°08'3 2.9
2015-May-16 22:33N 40°39' W 074°11'0 0.0
2015-May-16 21:31N 40°39' W 074°11'0 0.0
2015-May-16 20:33N 40°39' W 074°11'4 4.4
2015-May-16 19:33N 40°39' W 074°05'0 0.4
2015-May-16 18:33N 40°39' W 074°06'1 0.8
2015-May-16 17:08N 40°38' W 074°07'0 0.0
2015-May-16 16:32N 40°38' W 074°07'0 0.0
2015-May-16 15:33N 40°38' W 074°07'0 0.0
2015-May-16 14:22N 40°38' W 074°07'4 4.8
2015-May-16 13:33N 40°38' W 074°12'0 0.3
2015-May-16 12:33N 40°38' W 074°12'0 0.4
2015-May-16 11:33N 40°38' W 074°12'0 0.4
2015-May-16 10:33N 40°38' W 074°12'0 0.0
2015-May-16 07:33N 40°38' W 074°12'4 3.6
2015-May-16 06:34N 40°39' W 074°07'1 0.3
2015-May-16 03:32N 40°39' W 074°07'0 0.3
2015-May-16 02:33N 40°39' W 074°07'0 0.0
2015-May-16 01:34N 40°39' W 074°07'0 0.0
2015-May-16 00:33N 40°39' W 074°07'0 0.0
2015-May-15 23:33N 40°39' W 074°07'0 0.3
2015-May-15 22:33N 40°39' W 074°06'4 4.4
2015-May-15 21:34N 40°40' W 074°01'4 3.7
2015-May-15 20:33N 40°39' W 074°05'3 3.3
2015-May-15 19:33N 40°40' W 074°01'3 2.7
2015-May-15 18:33N 40°39' W 074°05'2 2.1
2015-May-15 17:33N 40°38' W 074°07'0 0.1
2015-May-15 16:34N 40°39' W 074°07'3 3.4
2015-May-15 15:33N 40°37' W 074°03'3 2.9
2015-May-15 14:33N 40°39' W 074°06'0 0.0
2015-May-15 13:33N 40°39' W 074°06'0 0.0
2015-May-15 12:33N 40°39' W 074°06'0 0.0
2015-May-15 11:33N 40°39' W 074°06'1 0.6
2015-May-15 10:33N 40°39' W 074°05'4 3.9
2015-May-15 09:34N 40°40' W 074°00'4 4.1
2015-May-15 08:33N 40°39' W 074°06'3 2.9
2015-May-15 07:33N 40°41' W 074°09'3 3.0
2015-May-15 06:34N 40°39' W 074°05'4 4.0
2015-May-15 05:33N 40°41' W 074°01'3 3.4
2015-May-15 04:33N 40°40' W 074°05'0 0.2
2015-May-15 03:33N 40°40' W 074°05'1 1.1
2015-May-15 02:34N 40°39' W 074°04'2 2.2
2015-May-15 01:33N 40°38' W 074°07'0 0.0
2015-May-15 00:33N 40°38' W 074°07'0 0.1
2015-May-14 23:33N 40°39' W 074°07'2 2.3
2015-May-14 22:34N 40°40' W 074°05'2 1.6
2015-May-14 21:33N 40°39' W 074°06'1 1.0
2015-May-14 20:24N 40°39' W 074°07'4 5.2
2015-May-14 19:33N 40°36' W 074°12'3 2.9
2015-May-14 18:33N 40°39' W 074°10'7 7.1
2015-May-14 17:33N 40°41' W 074°01'7 7.0
2015-May-14 16:33N 40°47' W 073°56'4 4.4
2015-May-14 15:33N 40°48' W 073°50'1 0.1
2015-May-13 17:32N 40°48' W 073°49'6 5.8
2015-May-13 16:33N 40°47' W 073°56'2 2.2
2015-May-13 15:34N 40°45' W 073°58'2 1.9
2015-May-13 14:33N 40°43' W 073°58'2 1.8
2015-May-13 13:33N 40°42' W 074°00'2 2.2
2015-May-13 12:33N 40°40' W 074°02'3 3.4
2015-May-13 11:33N 40°39' W 074°06'5 4.8
2015-May-13 10:33N 40°38' W 074°12'0 0.2
2015-May-13 09:32N 40°38' W 074°12'0 0.0
2015-May-13 07:27N 40°38' W 074°12'0 0.0
2015-May-13 06:33N 40°38' W 074°12'6 6.2
2015-May-13 05:34N 40°40' W 074°05'1 1.1
2015-May-13 04:34N 40°39' W 074°04'2 1.6
2015-May-13 03:34N 40°39' W 074°06'1 0.8
2015-May-13 02:33N 40°38' W 074°07'0 0.0
2015-May-13 01:25N 40°38' W 074°07'0 0.0
2015-May-13 00:32N 40°38' W 074°07'0 0.0
2015-May-12 23:32N 40°38' W 074°07'  

Dump ship's entire track history